KSFF/SFF METAR and TAF weather

Enter ICAO airport designator
Station Type Date Time Source
KSFF METAR 2019/02/20 16:53 UTC NOAA

KSFF 201653Z 00000KT 7SM BKN038 BKN046 M04/M07 A2975 RMK AO2 SLP096 T10391067


Station Type Date Time Source
KSFF Decoded METAR 2019/02/20 16:53 UTC NOAA

FELTS FIELD, WA, United States (KSFF) 47-41N 117-19W 609M
Feb 20, 2019 - 11:53 AM EST / 2019.02.20 1653 UTC
Wind: Calm:0
Visibility: 7 mile(s):0
Sky conditions: mostly cloudy
Temperature: 25.0 F (-3.9 C)
Dew Point: 19.9 F (-6.7 C)
Relative Humidity: 80%
Pressure (altimeter): 29.75 in. Hg (1007 hPa)
ob: KSFF 201653Z 00000KT 7SM BKN038 BKN046 M04/M07 A2975 RMK AO2 SLP096 T10391067
cycle: 17

Station Type Date Time Source
KSFF TAF 2019/02/20 12:30 UTC NOAA

TAF KSFF 201127Z 2012/2112 00000KT 3SM -SN BR FEW010 OVC035
FM201400 05003KT P6SM VCSH FEW010 OVC050
FM201800 03003KT P6SM BKN050


Example: see airport list